Time;durP1;ratioP1;P1;durP2;ratioP2;P2;SDS_P1;SDS_P2;PMS_P1;PMS_P2;Temp;Humidity;BMP_temperature;BMP_pressure;BME280_temperature;BME280_humidity;BME280_pressure;Samples;Min_cycle;Max_cycle;Signal;HPM_P1;HPM_P2
2022/03/28 00:00:24;;;;;;;47.07;27.60;;;;;5.40;102161.00;;;;10144129;29;20227;-81
2022/03/28 00:05:26;;;;;;;45.10;26.17;;;;;5.30;102151.00;;;;10175385;29;20676;-81
2022/03/28 00:10:28;;;;;;;46.60;28.03;;;;;5.20;102146.00;;;;10166857;29;20218;-80
2022/03/28 00:15:30;;;;;;;47.63;26.57;;;;;5.20;102140.00;;;;10165531;29;20202;-80
2022/03/28 00:20:32;;;;;;;52.73;28.67;;;;;5.10;102136.00;;;;10182884;29;20230;-81
2022/03/28 00:25:35;;;;;;;47.03;28.17;;;;;5.10;102141.00;;;;10167052;29;20296;-81
2022/03/28 00:30:38;;;;;;;46.13;27.23;;;;;5.00;102132.00;;;;10181088;29;20238;-80
2022/03/28 00:35:40;;;;;;;45.30;26.13;;;;;4.90;102121.00;;;;10159419;29;20610;-81
2022/03/28 00:40:42;;;;;;;44.03;26.37;;;;;4.90;102109.00;;;;10134939;29;20239;-80
2022/03/28 00:45:44;;;;;;;44.83;25.57;;;;;4.80;102108.00;;;;10142035;29;20215;-80
2022/03/28 00:50:46;;;;;;;47.33;26.33;;;;;4.70;102107.00;;;;10141610;29;20789;-80
2022/03/28 00:55:49;;;;;;;43.27;25.40;;;;;4.70;102105.00;;;;10126330;29;20198;-80
2022/03/28 01:00:50;;;;;;;48.93;25.67;;;;;4.70;102105.00;;;;10141035;29;20717;-81
2022/03/28 01:05:52;;;;;;;46.53;27.67;;;;;4.60;102085.00;;;;10125216;29;20599;-80
2022/03/28 01:10:56;;;;;;;50.80;26.33;;;;;4.60;102084.00;;;;10140676;29;20219;-80
2022/03/28 01:15:59;;;;;;;44.63;26.13;;;;;4.60;102080.00;;;;10141591;29;20271;-81
2022/03/28 01:21:03;;;;;;;46.43;25.80;;;;;4.50;102077.00;;;;10140985;29;20214;-80
2022/03/28 01:26:06;;;;;;;45.70;26.00;;;;;4.50;102071.00;;;;10126204;29;20263;-81
2022/03/28 01:31:08;;;;;;;45.33;26.33;;;;;4.50;102070.00;;;;10126203;29;20227;-81
2022/03/28 01:36:10;;;;;;;51.70;27.77;;;;;4.50;102060.00;;;;10135762;29;20271;-80
2022/03/28 01:41:12;;;;;;;42.77;25.07;;;;;4.50;102062.00;;;;10132445;29;20309;-81
2022/03/28 01:46:14;;;;;;;47.77;27.30;;;;;4.40;102064.00;;;;10124084;29;20211;-81
2022/03/28 01:51:16;;;;;;;49.13;27.30;;;;;4.30;102054.00;;;;10125627;29;20305;-81
2022/03/28 01:56:18;;;;;;;50.83;27.87;;;;;4.30;102055.00;;;;10108639;29;20199;-80
2022/03/28 02:01:20;;;;;;;45.70;24.43;;;;;4.20;102054.00;;;;10108854;29;20230;-82
2022/03/28 02:06:23;;;;;;;43.13;24.87;;;;;4.20;102051.00;;;;10132911;29;20207;-81
2022/03/28 02:11:25;;;;;;;43.20;24.33;;;;;4.10;102046.00;;;;10147606;29;20284;-81
2022/03/28 02:16:27;;;;;;;42.40;25.37;;;;;4.10;102043.00;;;;10131100;29;20206;-79
2022/03/28 02:21:29;;;;;;;42.03;26.27;;;;;4.00;102034.00;;;;10147347;29;20199;-79
2022/03/28 02:26:30;;;;;;;49.97;26.93;;;;;4.00;102027.00;;;;10134150;29;20666;-79
2022/03/28 02:31:34;;;;;;;44.00;25.80;;;;;4.00;102035.00;;;;10146183;29;20222;-79
2022/03/28 02:36:36;;;;;;;46.23;27.83;;;;;4.00;102028.00;;;;10171793;29;20448;-79
2022/03/28 02:41:38;;;;;;;46.53;26.03;;;;;4.00;102018.00;;;;10079396;29;20208;-80
2022/03/28 02:46:40;;;;;;;44.03;25.97;;;;;4.00;102022.00;;;;10102083;29;20251;-79
2022/03/28 02:51:42;;;;;;;45.30;25.10;;;;;3.90;102005.00;;;;10130712;29;20744;-79
2022/03/28 02:56:43;;;;;;;48.53;27.20;;;;;3.90;101994.00;;;;10131402;29;20203;-80
2022/03/28 03:01:48;;;;;;;47.60;26.23;;;;;3.90;101994.00;;;;10129796;29;20223;-79
2022/03/28 03:06:50;;;;;;;50.73;28.97;;;;;3.80;101995.00;;;;10122109;29;20579;-80
2022/03/28 03:11:52;;;;;;;48.07;28.63;;;;;3.80;101992.00;;;;10106434;29;20245;-80
2022/03/28 03:16:54;;;;;;;49.47;27.07;;;;;3.80;101984.00;;;;10105887;29;20281;-80
2022/03/28 03:21:56;;;;;;;56.50;27.57;;;;;3.80;101980.00;;;;10088938;29;20214;-79
2022/03/28 03:26:58;;;;;;;53.70;27.50;;;;;3.70;101965.00;;;;10105420;29;20208;-80
2022/03/28 03:32:01;;;;;;;51.90;29.03;;;;;3.70;101951.00;;;;10089837;29;20639;-80
2022/03/28 03:37:04;;;;;;;48.33;27.83;;;;;3.70;101958.00;;;;10140500;29;20258;-80
2022/03/28 03:42:06;;;;;;;45.83;25.93;;;;;3.60;101965.00;;;;10128147;29;20624;-80
2022/03/28 03:47:08;;;;;;;43.50;26.23;;;;;3.50;101964.00;;;;10127710;29;20203;-80
2022/03/28 03:52:10;;;;;;;42.90;25.03;;;;;3.40;101967.00;;;;10143713;29;20594;-79
2022/03/28 03:57:12;;;;;;;44.60;24.30;;;;;3.30;101969.00;;;;10128572;29;20226;-79
2022/03/28 04:02:14;;;;;;;41.90;24.90;;;;;3.30;101963.00;;;;10104159;29;20857;-80
2022/03/28 04:07:16;;;;;;;45.87;25.27;;;;;3.20;101960.00;;;;10151284;29;20299;-79
2022/03/28 04:12:18;;;;;;;47.00;25.97;;;;;3.20;101959.00;;;;10127804;29;20263;-79
2022/03/28 04:17:20;;;;;;;44.10;26.20;;;;;3.10;101949.00;;;;10128773;29;20788;-80
2022/03/28 04:22:22;;;;;;;41.50;24.70;;;;;3.10;101942.00;;;;10127097;29;20813;-80
2022/03/28 04:27:24;;;;;;;47.40;25.67;;;;;3.00;101939.00;;;;10127177;29;20195;-80
2022/03/28 04:32:26;;;;;;;42.63;24.43;;;;;2.90;101927.00;;;;10143724;29;20586;-80
2022/03/28 04:37:36;;;;;;;42.60;24.53;;;;;2.80;101938.00;;;;10124046;29;20205;-79
2022/03/28 04:42:38;;;;;;;40.93;24.93;;;;;2.80;101944.00;;;;10142303;29;20203;-79
2022/03/28 04:47:41;;;;;;;43.87;25.60;;;;;2.80;101935.00;;;;10126980;29;20253;-79
2022/03/28 04:52:43;;;;;;;41.67;24.20;;;;;2.70;101935.00;;;;10181766;29;20226;-79
2022/03/28 04:57:45;;;;;;;46.73;25.97;;;;;2.70;101932.00;;;;10166696;29;20222;-79
2022/03/28 05:02:47;;;;;;;43.53;25.90;;;;;2.70;101933.00;;;;10182099;29;20316;-80
2022/03/28 05:07:49;;;;;;;41.83;25.43;;;;;2.60;101929.00;;;;10151921;29;20206;-79
2022/03/28 05:12:51;;;;;;;48.83;28.47;;;;;2.60;101944.00;;;;10128266;29;20863;-80
2022/03/28 05:17:53;;;;;;;51.37;26.03;;;;;2.60;101927.00;;;;10142902;29;20646;-80
2022/03/28 05:22:55;;;;;;;45.27;26.63;;;;;2.60;101932.00;;;;10143783;29;20437;-80
2022/03/28 05:27:57;;;;;;;50.60;28.23;;;;;2.60;101937.00;;;;10143225;29;20210;-81
2022/03/28 05:32:59;;;;;;;48.53;26.87;;;;;2.50;101914.00;;;;10130943;29;20215;-81
2022/03/28 05:38:01;;;;;;;44.63;27.37;;;;;2.60;101930.00;;;;10134083;29;20203;-80
2022/03/28 05:43:03;;;;;;;47.10;27.20;;;;;2.60;101934.00;;;;10185384;29;20289;-81
2022/03/28 05:48:05;;;;;;;48.40;28.57;;;;;2.70;101937.00;;;;10148229;29;20210;-80
2022/03/28 05:53:07;;;;;;;54.10;28.17;;;;;2.80;101917.00;;;;10147191;29;20230;-81
2022/03/28 05:58:10;;;;;;;56.47;29.07;;;;;3.00;101927.00;;;;10130149;29;20633;-81
2022/03/28 06:03:12;;;;;;;56.70;29.70;;;;;3.30;101937.00;;;;10130647;29;20231;-82
2022/03/28 06:08:35;;;;;;;48.80;28.30;;;;;3.70;101930.00;;;;10106817;29;20743;-81
2022/03/28 06:13:37;;;;;;;53.47;30.57;;;;;4.10;101926.00;;;;10105460;29;20568;-82
2022/03/28 06:18:38;;;;;;;52.57;32.10;;;;;4.50;101928.00;;;;10089474;29;20204;-81
2022/03/28 06:23:40;;;;;;;57.87;31.03;;;;;4.80;101922.00;;;;10106567;29;20203;-82
2022/03/28 06:28:43;;;;;;;48.97;29.43;;;;;5.10;101926.00;;;;10111436;29;20215;-82
2022/03/28 06:33:44;;;;;;;43.93;28.33;;;;;5.30;101923.00;;;;10129909;29;20229;-81
2022/03/28 06:38:46;;;;;;;43.90;26.30;;;;;5.70;101923.00;;;;10189627;29;20211;-80
2022/03/28 06:43:48;;;;;;;51.57;26.37;;;;;6.10;101934.00;;;;10134618;29;20543;-81
2022/03/28 06:48:52;;;;;;;51.17;27.53;;;;;6.50;101919.00;;;;10181429;29;20514;-80
2022/03/28 06:53:54;;;;;;;42.90;28.37;;;;;7.10;101913.00;;;;10131914;29;20291;-79
2022/03/28 06:58:58;;;;;;;33.33;22.73;;;;;7.70;101911.00;;;;10131644;29;20206;-79
2022/03/28 07:04:00;;;;;;;39.57;24.03;;;;;8.10;101910.00;;;;10131643;29;20223;-80
2022/03/28 07:09:04;;;;;;;36.53;23.77;;;;;8.40;101899.00;;;;10145687;29;20275;-79
2022/03/28 07:14:07;;;;;;;32.27;21.60;;;;;8.90;101895.00;;;;10131006;29;20223;-80
2022/03/28 07:19:09;;;;;;;36.37;22.57;;;;;9.40;101897.00;;;;10161955;29;20198;-80
2022/03/28 07:24:11;;;;;;;32.40;20.90;;;;;9.80;101890.00;;;;10145758;29;20255;-80
2022/03/28 07:29:14;;;;;;;33.33;20.27;;;;;10.10;101881.00;;;;10161669;29;20251;-80
2022/03/28 07:34:35;;;;;;;27.10;20.07;;;;;10.20;101879.00;;;;10143349;29;20366;-79
2022/03/28 07:39:38;;;;;;;31.63;22.10;;;;;10.20;101877.00;;;;10130482;29;20210;-79
2022/03/28 07:44:42;;;;;;;33.10;20.10;;;;;10.50;101878.00;;;;10131129;29;20258;-80
2022/03/28 07:49:45;;;;;;;28.90;20.43;;;;;10.80;101870.00;;;;10145051;29;20202;-80
2022/03/28 07:54:48;;;;;;;32.73;19.97;;;;;11.00;101862.00;;;;10145530;29;20256;-80
2022/03/28 07:59:50;;;;;;;31.27;19.70;;;;;11.30;101862.00;;;;10144637;29;20199;-80
2022/03/28 08:05:15;;;;;;;30.70;21.13;;;;;11.80;101854.00;;;;10175796;29;20213;-81
2022/03/28 08:10:19;;;;;;;32.47;19.70;;;;;12.10;101859.00;;;;10183959;29;20206;-79
2022/03/28 08:15:22;;;;;;;27.20;18.33;;;;;12.50;101856.00;;;;10168710;29;20226;-81
2022/03/28 08:20:25;;;;;;;26.67;19.40;;;;;12.70;101844.00;;;;10123759;29;20312;-81
2022/03/28 08:25:27;;;;;;;34.47;20.67;;;;;13.30;101839.00;;;;10106830;29;20271;-80
2022/03/28 08:30:29;;;;;;;28.27;18.97;;;;;13.80;101838.00;;;;10138280;29;20237;-81
2022/03/28 08:35:31;;;;;;;28.60;19.53;;;;;14.00;101824.00;;;;10147156;29;20261;-80
2022/03/28 08:40:34;;;;;;;33.27;19.67;;;;;14.50;101827.00;;;;10133246;29;20200;-80
2022/03/28 08:45:38;;;;;;;29.50;19.43;;;;;14.70;101827.00;;;;10109730;29;20667;-81
2022/03/28 08:50:43;;;;;;;31.07;19.70;;;;;15.20;101833.00;;;;10131356;29;20199;-81
2022/03/28 08:55:46;;;;;;;39.43;21.20;;;;;15.20;101815.00;;;;10130490;29;20223;-81
2022/03/28 09:00:48;;;;;;;28.37;18.83;;;;;15.60;101824.00;;;;10150638;29;20241;-81
2022/03/28 09:05:50;;;;;;;33.10;20.83;;;;;15.90;101826.00;;;;10169163;29;20222;-81
2022/03/28 09:10:52;;;;;;;29.83;19.77;;;;;16.30;101820.00;;;;10167289;29;20217;-81
2022/03/28 09:15:56;;;;;;;29.50;19.43;;;;;16.30;101826.00;;;;10198982;29;20218;-80
2022/03/28 09:21:00;;;;;;;33.33;19.47;;;;;16.60;101819.00;;;;10167473;29;20319;-81
2022/03/28 09:26:12;;;;;;;27.87;19.40;;;;;16.80;101807.00;;;;10215486;29;20933;-80
2022/03/28 09:31:34;;;;;;;27.70;19.40;;;;;17.30;101810.00;;;;10187584;29;20198;-81
2022/03/28 09:36:51;;;;;;;30.13;20.58;;;;;17.70;101799.00;;;;10153708;29;20265;-81
2022/03/28 09:42:03;;;;;;;30.63;18.95;;;;;18.10;101793.00;;;;10089376;29;20206;-81
2022/03/28 09:47:08;;;;;;;24.98;20.08;;;;;18.30;101784.00;;;;10135246;29;20209;-81
2022/03/28 09:52:16;;;;;;;26.27;18.73;;;;;18.40;101785.00;;;;10143741;29;20245;-81
2022/03/28 09:57:33;;;;;;;25.90;18.98;;;;;18.90;101768.00;;;;10130050;29;20234;-81
2022/03/28 10:02:35;;;;;;;26.40;18.00;;;;;18.70;101769.00;;;;10132139;29;20262;-79
2022/03/28 10:07:38;;;;;;;23.95;18.58;;;;;19.00;101777.00;;;;10136307;29;20202;-80
2022/03/28 10:12:40;;;;;;;25.98;18.52;;;;;19.40;101768.00;;;;10166523;29;20219;-80
2022/03/28 10:17:43;;;;;;;27.15;18.63;;;;;19.90;101765.00;;;;10164742;29;20832;-80
2022/03/28 10:22:51;;;;;;;28.40;19.30;;;;;19.90;101757.00;;;;10131097;29;20655;-81
2022/03/28 10:27:53;;;;;;;25.63;19.05;;;;;20.00;101756.00;;;;10179133;28;20202;-81
2022/03/28 10:33:12;;;;;;;24.73;18.13;;;;;20.30;101744.00;;;;10148880;29;20214;-80
2022/03/28 10:38:19;;;;;;;27.90;18.55;;;;;21.00;101728.00;;;;10126919;29;20251;-81
2022/03/28 10:43:25;;;;;;;27.95;17.60;;;;;21.30;101730.00;;;;10148713;29;20210;-81
2022/03/28 10:48:40;;;;;;;21.88;16.10;;;;;21.60;101732.00;;;;10145292;29;20230;-80
2022/03/28 10:53:47;;;;;;;22.33;15.48;;;;;21.50;101729.00;;;;10157385;29;20214;-79
2022/03/28 10:58:54;;;;;;;23.20;16.60;;;;;21.70;101719.00;;;;10159037;29;20293;-79
2022/03/28 11:04:15;;;;;;;24.13;15.32;;;;;22.30;101714.00;;;;10154075;29;20226;-79
2022/03/28 11:09:54;;;;;;;18.98;15.30;;;;;22.50;101710.00;;;;10150063;29;20211;-78
2022/03/28 11:15:02;;;;;;;21.30;15.07;;;;;22.20;101705.00;;;;10144273;29;20678;-78
2022/03/28 11:20:11;;;;;;;28.83;19.17;;;;;22.20;101697.00;;;;10140943;29;20210;-79
2022/03/28 11:25:42;;;;;;;24.73;18.08;;;;;22.40;101695.00;;;;10178803;29;20205;-80
2022/03/28 11:30:45;;;;;;;27.27;18.85;;;;;22.90;101683.00;;;;10143512;29;20194;-80
2022/03/28 11:35:55;;;;;;;26.60;18.35;;;;;23.30;101683.00;;;;10144412;29;20350;-80
2022/03/28 11:40:59;;;;;;;33.05;20.52;;;;;23.60;101680.00;;;;10146398;29;20205;-80
2022/03/28 11:46:09;;;;;;;34.25;19.65;;;;;23.80;101675.00;;;;10144697;29;20684;-79
2022/03/28 11:51:16;;;;;;;33.88;21.27;;;;;23.60;101672.00;;;;10144669;29;20215;-80
2022/03/28 11:56:24;;;;;;;28.67;20.17;;;;;23.50;101667.00;;;;10156637;29;20232;-80
2022/03/28 12:01:29;;;;;;;31.65;19.98;;;;;23.50;101666.00;;;;10144844;29;20227;-81
2022/03/28 12:06:38;;;;;;;31.45;22.50;;;;;24.10;101656.00;;;;10176157;29;20233;-81
2022/03/28 12:11:47;;;;;;;28.33;20.08;;;;;24.00;101646.00;;;;10129635;29;20259;-80
2022/03/28 12:16:52;;;;;;;30.10;18.80;;;;;23.30;101644.00;;;;10144489;29;20231;-80
2022/03/28 12:21:55;;;;;;;29.58;19.08;;;;;23.10;101635.00;;;;10127831;29;20195;-81
2022/03/28 12:27:00;;;;;;;26.48;19.52;;;;;23.30;101623.00;;;;10145981;29;20305;-80
2022/03/28 12:32:03;;;;;;;36.25;21.75;;;;;23.60;101607.00;;;;10143941;29;20259;-80
2022/03/28 12:37:06;;;;;;;26.83;18.02;;;;;23.70;101593.00;;;;10125384;29;20562;-81
2022/03/28 12:42:08;;;;;;;27.67;20.23;;;;;23.50;101593.00;;;;10129675;29;20203;-81
2022/03/28 12:47:10;;;;;;;25.10;16.88;;;;;23.50;101585.00;;;;10144972;29;20755;-80
2022/03/28 12:52:22;;;;;;;25.73;19.55;;;;;24.00;101580.00;;;;10143356;29;20206;-81
2022/03/28 12:57:27;;;;;;;26.40;17.45;;;;;24.50;101567.00;;;;10147522;29;20314;-82
2022/03/28 13:02:29;;;;;;;28.27;16.63;;;;;23.90;101558.00;;;;10164669;29;20293;-82
2022/03/28 13:07:32;;;;;;;28.88;19.30;;;;;23.60;101554.00;;;;10137086;29;20233;-80
2022/03/28 13:12:38;;;;;;;25.63;18.58;;;;;23.50;101541.00;;;;10148020;29;20228;-80
2022/03/28 13:17:43;;;;;;;27.77;18.27;;;;;23.80;101535.00;;;;10165251;29;20821;-83
2022/03/28 13:22:50;;;;;;;23.80;16.30;;;;;24.00;101524.00;;;;10142569;29;20195;-82
2022/03/28 13:28:08;;;;;;;28.23;18.70;;;;;24.40;101513.00;;;;10121221;29;20203;-83
2022/03/28 13:33:12;;;;;;;22.10;15.50;;;;;24.80;101497.00;;;;10107978;29;20652;-83
2022/03/28 13:38:16;;;;;;;25.95;16.80;;;;;26.00;101492.00;;;;10111677;29;20206;-83
2022/03/28 13:43:23;;;;;;;27.73;18.45;;;;;27.20;101494.00;;;;10158691;29;20214;-83
2022/03/28 13:48:26;;;;;;;23.25;16.65;;;;;27.40;101479.00;;;;10141002;29;20658;-83
2022/03/28 13:53:27;;;;;;;21.85;14.30;;;;;26.90;101474.00;;;;10143710;29;20277;-82
2022/03/28 13:58:30;;;;;;;20.77;14.80;;;;;26.90;101459.00;;;;10102342;29;20723;-82
2022/03/28 14:03:38;;;;;;;21.63;15.07;;;;;27.00;101460.00;;;;10122283;29;20247;-81
2022/03/28 14:08:41;;;;;;;24.50;14.80;;;;;26.20;101456.00;;;;10169397;29;20217;-82
2022/03/28 14:13:46;;;;;;;22.88;16.00;;;;;25.90;101449.00;;;;10128713;29;20214;-81
2022/03/28 14:18:49;;;;;;;27.83;16.67;;;;;26.40;101438.00;;;;10144386;29;20214;-82
2022/03/28 14:23:51;;;;;;;22.08;14.77;;;;;26.50;101435.00;;;;10136594;29;20206;-81
2022/03/28 14:28:53;;;;;;;19.63;13.73;;;;;25.70;101439.00;;;;10130579;29;20668;-82
2022/03/28 14:33:55;;;;;;;21.75;14.00;;;;;24.80;101438.00;;;;10150339;29;20215;-82
2022/03/28 14:38:57;;;;;;;22.88;13.88;;;;;24.10;101433.00;;;;10143847;29;20262;-82
2022/03/28 14:43:59;;;;;;;18.58;13.13;;;;;23.40;101427.00;;;;10142424;29;20738;-80
2022/03/28 14:49:06;;;;;;;19.38;14.48;;;;;22.80;101419.00;;;;10148816;29;20211;-79
2022/03/28 14:54:08;;;;;;;20.35;13.93;;;;;22.60;101421.00;;;;10147647;29;20215;-79
2022/03/28 14:59:10;;;;;;;17.63;12.45;;;;;22.50;101415.00;;;;10163967;29;20255;-81
2022/03/28 15:04:12;;;;;;;20.15;13.02;;;;;21.80;101406.00;;;;10136358;29;20283;-80
2022/03/28 15:09:15;;;;;;;17.80;13.18;;;;;22.00;101397.00;;;;10142349;29;20211;-79
2022/03/28 15:14:17;;;;;;;21.25;13.57;;;;;21.60;101393.00;;;;10119784;29;20220;-79
2022/03/28 15:19:19;;;;;;;17.98;13.82;;;;;21.70;101387.00;;;;10122188;29;20215;-79
2022/03/28 15:24:21;;;;;;;17.83;12.43;;;;;21.60;101394.00;;;;10105674;29;20256;-79
2022/03/28 15:29:23;;;;;;;19.50;13.73;;;;;21.20;101384.00;;;;10137415;29;20260;-79
2022/03/28 15:34:25;;;;;;;20.58;13.23;;;;;21.30;101379.00;;;;10152767;29;20234;-78
2022/03/28 15:39:27;;;;;;;19.00;13.73;;;;;21.20;101372.00;;;;10163019;29;20199;-79
2022/03/28 15:44:29;;;;;;;19.83;13.60;;;;;20.70;101367.00;;;;10144429;29;20263;-79
2022/03/28 15:49:31;;;;;;;16.50;11.93;;;;;20.30;101362.00;;;;10154430;29;20275;-78
2022/03/28 15:54:33;;;;;;;21.40;13.05;;;;;19.90;101365.00;;;;10144452;29;20257;-79
2022/03/28 15:59:36;;;;;;;22.58;12.95;;;;;19.50;101349.00;;;;10159912;29;20629;-78
2022/03/28 16:04:39;;;;;;;19.80;12.75;;;;;19.50;101340.00;;;;10128779;29;20726;-80
2022/03/28 16:09:40;;;;;;;19.35;13.30;;;;;19.40;101328.00;;;;10130320;29;20271;-79
2022/03/28 16:14:43;;;;;;;20.17;13.10;;;;;19.30;101323.00;;;;10144367;29;20282;-79
2022/03/28 16:19:45;;;;;;;19.45;13.18;;;;;19.30;101318.00;;;;10118547;29;20227;-78
2022/03/28 16:24:47;;;;;;;21.65;13.43;;;;;19.30;101314.00;;;;10122137;29;20513;-78
2022/03/28 16:29:50;;;;;;;22.30;13.88;;;;;19.00;101315.00;;;;10105253;29;20678;-78
2022/03/28 16:34:52;;;;;;;20.90;13.52;;;;;18.80;101314.00;;;;10154196;29;20228;-78
2022/03/28 16:39:56;;;;;;;22.58;15.20;;;;;18.70;101307.00;;;;10144475;29;20202;-78
2022/03/28 16:44:58;;;;;;;22.67;15.23;;;;;18.60;101308.00;;;;10119271;29;20215;-78
2022/03/28 16:50:02;;;;;;;22.52;14.85;;;;;18.20;101309.00;;;;10142353;29;20210;-78
2022/03/28 16:55:05;;;;;;;24.38;15.05;;;;;17.90;101305.00;;;;10125979;29;20326;-78
2022/03/28 17:00:08;;;;;;;20.63;14.98;;;;;17.70;101300.00;;;;10142562;29;20219;-78
2022/03/28 17:05:11;;;;;;;22.10;15.15;;;;;17.40;101296.00;;;;10175742;29;20237;-78
2022/03/28 17:10:14;;;;;;;28.03;15.60;;;;;17.20;101291.00;;;;10127655;29;20195;-78
2022/03/28 17:15:17;;;;;;;25.10;16.23;;;;;17.00;101288.00;;;;10125268;29;20250;-79
2022/03/28 17:20:20;;;;;;;27.55;16.95;;;;;16.80;101291.00;;;;10141402;29;20237;-78
2022/03/28 17:25:22;;;;;;;22.80;16.17;;;;;16.60;101289.00;;;;10119212;29;20203;-81
2022/03/28 17:30:25;;;;;;;30.17;16.90;;;;;16.30;101284.00;;;;10089010;29;20593;-79
2022/03/28 17:35:27;;;;;;;22.60;15.03;;;;;16.10;101285.00;;;;10141928;29;20321;-80
2022/03/28 17:40:29;;;;;;;25.67;15.93;;;;;15.90;101291.00;;;;10164629;29;20201;-79
2022/03/28 17:45:32;;;;;;;27.70;16.43;;;;;15.60;101278.00;;;;10177239;29;20271;-80
2022/03/28 17:50:38;;;;;;;24.60;15.27;;;;;15.40;101282.00;;;;10140589;29;20206;-80
2022/03/28 17:55:43;;;;;;;27.03;15.93;;;;;15.20;101270.00;;;;10157347;29;20210;-79
2022/03/28 18:00:49;;;;;;;24.30;15.30;;;;;15.00;101273.00;;;;10125761;29;20762;-79
2022/03/28 18:05:51;;;;;;;24.00;15.30;;;;;14.80;101281.00;;;;10140272;29;20264;-79
2022/03/28 18:10:53;;;;;;;22.60;14.40;;;;;14.60;101284.00;;;;10126168;29;20202;-79
2022/03/28 18:15:56;;;;;;;29.60;16.27;;;;;14.50;101274.00;;;;10141120;29;20263;-80
2022/03/28 18:20:58;;;;;;;24.43;15.10;;;;;14.40;101281.00;;;;10142976;29;20269;-79
2022/03/28 18:26:01;;;;;;;28.17;16.40;;;;;14.40;101275.00;;;;10132718;29;20232;-80
2022/03/28 18:31:03;;;;;;;26.87;14.77;;;;;14.30;101279.00;;;;10163646;29;20210;-79
2022/03/28 18:36:05;;;;;;;26.67;16.00;;;;;14.30;101279.00;;;;10136283;29;20223;-79
2022/03/28 18:41:07;;;;;;;26.57;16.17;;;;;14.20;101282.00;;;;10108093;29;20206;-80
2022/03/28 18:46:10;;;;;;;26.93;15.97;;;;;14.10;101287.00;;;;10116036;29;20237;-79
2022/03/28 18:51:12;;;;;;;26.30;14.50;;;;;14.00;101284.00;;;;10177582;29;20192;-80
2022/03/28 18:56:14;;;;;;;26.47;15.03;;;;;14.00;101279.00;;;;10163216;29;20242;-79
2022/03/28 19:01:18;;;;;;;23.40;15.00;;;;;13.80;101279.00;;;;10130649;29;20227;-79
2022/03/28 19:06:22;;;;;;;25.23;14.13;;;;;13.70;101272.00;;;;10127112;29;20647;-79
2022/03/28 19:11:24;;;;;;;27.53;15.03;;;;;13.60;101267.00;;;;10145028;29;20202;-79
2022/03/28 19:16:32;;;;;;;28.07;16.10;;;;;13.40;101271.00;;;;10161108;29;20222;-80
2022/03/28 19:21:34;;;;;;;26.53;15.67;;;;;13.30;101266.00;;;;10145916;29;20201;-79
2022/03/28 19:26:37;;;;;;;26.87;14.80;;;;;13.10;101258.00;;;;10160389;29;20187;-80
2022/03/28 19:31:39;;;;;;;29.30;15.50;;;;;13.00;101251.00;;;;10144933;29;20206;-80
2022/03/28 19:36:43;;;;;;;25.50;15.20;;;;;12.90;101250.00;;;;10129664;29;20215;-80
2022/03/28 19:41:45;;;;;;;32.77;15.67;;;;;12.80;101249.00;;;;10107057;29;20214;-80
2022/03/28 19:46:48;;;;;;;28.37;16.10;;;;;12.80;101248.00;;;;10118947;29;20241;-79
2022/03/28 19:51:52;;;;;;;27.10;15.93;;;;;12.70;101240.00;;;;10128630;29;20207;-80
2022/03/28 19:57:14;;;;;;;26.57;15.30;;;;;12.60;101238.00;;;;10143428;29;20214;-79
2022/03/28 20:02:16;;;;;;;26.83;16.00;;;;;12.60;101237.00;;;;10144489;29;20226;-79
2022/03/28 20:07:20;;;;;;;28.00;17.00;;;;;12.50;101235.00;;;;10126837;29;20211;-79
2022/03/28 20:12:22;;;;;;;34.03;19.47;;;;;12.50;101231.00;;;;10144903;29;20456;-80
2022/03/28 20:17:25;;;;;;;31.67;20.20;;;;;12.40;101228.00;;;;10159894;29;20275;-78
2022/03/28 20:22:27;;;;;;;31.77;19.33;;;;;12.40;101234.00;;;;10159647;29;20267;-78
2022/03/28 20:27:33;;;;;;;31.37;19.83;;;;;12.30;101228.00;;;;10128241;29;20214;-79
2022/03/28 20:32:35;;;;;;;39.90;20.07;;;;;12.30;101224.00;;;;10123584;29;20215;-78
2022/03/28 20:37:37;;;;;;;37.90;20.50;;;;;12.30;101213.00;;;;10175684;29;20701;-79
2022/03/28 20:42:45;;;;;;;41.23;19.57;;;;;12.20;101214.00;;;;10180207;29;20681;-79
2022/03/28 20:47:47;;;;;;;34.93;20.97;;;;;12.20;101215.00;;;;10200648;29;20199;-79
2022/03/28 20:52:49;;;;;;;37.43;21.83;;;;;12.10;101206.00;;;;10181928;29;20217;-80
2022/03/28 20:57:52;;;;;;;34.37;21.27;;;;;12.10;101203.00;;;;10166192;29;20285;-81
2022/03/28 21:02:56;;;;;;;34.80;21.10;;;;;12.00;101188.00;;;;10121734;29;20331;-81
2022/03/28 21:07:58;;;;;;;35.87;20.23;;;;;11.90;101187.00;;;;10132291;29;20240;-80
2022/03/28 21:13:00;;;;;;;34.10;21.77;;;;;11.80;101189.00;;;;10142574;29;20670;-82
2022/03/28 21:18:04;;;;;;;38.83;22.17;;;;;11.80;101180.00;;;;10095446;29;20234;-80
2022/03/28 21:23:07;;;;;;;38.83;21.90;;;;;11.70;101184.00;;;;10148861;29;20206;-80
2022/03/28 21:28:09;;;;;;;32.43;19.47;;;;;11.60;101180.00;;;;10108686;29;20276;-81
2022/03/28 21:33:11;;;;;;;36.17;20.07;;;;;11.50;101177.00;;;;10139830;29;20210;-81
2022/03/28 21:38:13;;;;;;;36.47;21.90;;;;;11.50;101176.00;;;;10138563;29;20222;-80
2022/03/28 21:43:15;;;;;;;33.33;21.10;;;;;11.40;101179.00;;;;10125027;29;20207;-80
2022/03/28 21:48:17;;;;;;;35.73;21.63;;;;;11.40;101178.00;;;;10138572;29;20202;-80
2022/03/28 21:53:19;;;;;;;37.80;22.37;;;;;11.30;101175.00;;;;10108675;28;20190;-81
2022/03/28 21:58:22;;;;;;;38.97;24.03;;;;;11.30;101172.00;;;;10123416;29;20249;-80
2022/03/28 22:03:26;;;;;;;37.90;22.33;;;;;11.20;101174.00;;;;10144109;29;20223;-79
2022/03/28 22:08:28;;;;;;;38.70;22.50;;;;;11.20;101174.00;;;;10127779;29;20246;-79
2022/03/28 22:13:30;;;;;;;41.40;23.80;;;;;11.20;101179.00;;;;10124974;29;20668;-79
2022/03/28 22:18:31;;;;;;;41.97;25.03;;;;;11.20;101174.00;;;;10124249;29;20734;-81
2022/03/28 22:23:34;;;;;;;38.90;23.10;;;;;11.10;101182.00;;;;10139914;29;20725;-79
2022/03/28 22:28:35;;;;;;;44.77;23.83;;;;;11.10;101170.00;;;;10123189;29;20655;-80
2022/03/28 22:33:38;;;;;;;44.70;23.60;;;;;11.00;101161.00;;;;10108091;29;20191;-80
2022/03/28 22:38:40;;;;;;;37.37;22.97;;;;;11.00;101161.00;;;;10106344;29;20252;-79
2022/03/28 22:43:42;;;;;;;40.60;23.77;;;;;11.00;101159.00;;;;10090251;29;20204;-80
2022/03/28 22:48:44;;;;;;;38.40;24.70;;;;;10.90;101152.00;;;;10140409;29;20210;-80
2022/03/28 22:53:46;;;;;;;42.77;25.27;;;;;10.80;101156.00;;;;10145985;29;20238;-79
2022/03/28 22:58:48;;;;;;;37.53;24.63;;;;;10.80;101147.00;;;;10128663;29;20210;-80
2022/03/28 23:03:50;;;;;;;43.53;25.10;;;;;10.80;101140.00;;;;10164375;29;20224;-80
2022/03/28 23:08:52;;;;;;;44.57;25.17;;;;;10.80;101140.00;;;;10167485;29;20232;-80
2022/03/28 23:13:54;;;;;;;42.03;24.07;;;;;10.80;101148.00;;;;10167661;29;20470;-79
2022/03/28 23:18:56;;;;;;;41.37;25.03;;;;;10.70;101145.00;;;;10167175;29;20230;-79
2022/03/28 23:23:58;;;;;;;40.10;23.97;;;;;10.70;101139.00;;;;10182763;29;20198;-80
2022/03/28 23:29:02;;;;;;;43.90;24.00;;;;;10.60;101132.00;;;;10139338;29;20230;-79
2022/03/28 23:34:04;;;;;;;42.73;24.90;;;;;10.60;101137.00;;;;10131717;29;20442;-80
2022/03/28 23:39:08;;;;;;;40.67;24.27;;;;;10.60;101124.00;;;;10138257;29;20211;-81
2022/03/28 23:44:10;;;;;;;40.40;24.20;;;;;10.60;101122.00;;;;10105390;29;20199;-79
2022/03/28 23:49:12;;;;;;;47.53;24.13;;;;;10.50;101117.00;;;;10105905;29;20207;-79
2022/03/28 23:54:14;;;;;;;42.93;25.47;;;;;10.50;101099.00;;;;10142373;29;20231;-79
2022/03/28 23:59:16;;;;;;;45.97;27.03;;;;;10.60;101105.00;;;;10113827;29;20245;-80
